createdAt,value
2018-07-21T00:01:44.485Z,95.80
2018-07-21T00:04:13.480Z,95.80
2018-07-21T00:06:42.196Z,95.90
2018-07-21T00:09:12.283Z,95.90
2018-07-21T00:11:41.964Z,95.90
2018-07-21T00:14:10.726Z,96.00
2018-07-21T00:16:39.697Z,96.00
2018-07-21T00:19:09.983Z,96.00
2018-07-21T00:21:39.661Z,96.20
2018-07-21T00:24:08.367Z,96.30
2018-07-21T00:26:42.424Z,96.50
2018-07-21T00:29:11.140Z,96.70
2018-07-21T00:31:39.879Z,97.00
2018-07-21T00:34:08.773Z,97.70
2018-07-21T00:36:37.508Z,98.30
2018-07-21T00:39:08.497Z,98.20
2018-07-21T00:41:37.297Z,98.10
2018-07-21T00:44:06.246Z,98.60
2018-07-21T00:46:34.988Z,98.50
2018-07-21T00:49:03.688Z,98.60
2018-07-21T00:51:32.396Z,99.00
2018-07-21T00:54:01.161Z,99.10
2018-07-21T00:56:30.610Z,99.10
2018-07-21T00:58:59.597Z,99.20
2018-07-21T01:01:28.244Z,99.30
2018-07-21T01:03:56.996Z,99.70
2018-07-21T01:06:25.854Z,99.90
2018-07-21T01:08:54.596Z,99.90
2018-07-21T01:11:23.470Z,99.90
2018-07-21T01:13:52.278Z,99.90
2018-07-21T01:16:20.971Z,99.90
2018-07-21T01:18:49.753Z,99.90
2018-07-21T01:21:18.424Z,99.90
2018-07-21T01:23:47.145Z,99.90
2018-07-21T01:26:15.848Z,99.90
2018-07-21T01:28:44.600Z,99.90
2018-07-21T01:31:13.300Z,99.90
2018-07-21T01:33:42.514Z,99.90
2018-07-21T01:36:11.201Z,99.90
2018-07-21T01:38:39.965Z,99.90
2018-07-21T01:41:08.677Z,99.90
2018-07-21T01:43:37.424Z,99.90
2018-07-21T01:46:06.124Z,99.90
2018-07-21T01:48:34.820Z,99.90
2018-07-21T01:51:03.721Z,99.90
2018-07-21T01:53:32.456Z,99.90
2018-07-21T01:56:01.168Z,99.90
2018-07-21T01:58:30.991Z,99.90
2018-07-21T02:00:59.677Z,99.90
2018-07-21T02:03:28.392Z,99.90
2018-07-21T02:05:57.088Z,99.90
2018-07-21T02:08:25.801Z,99.90
2018-07-21T02:10:54.518Z,99.90
2018-07-21T02:13:23.220Z,99.90
2018-07-21T02:15:51.945Z,99.90
2018-07-21T02:18:20.695Z,99.90
2018-07-21T02:20:49.407Z,99.90
2018-07-21T02:23:18.112Z,99.90
2018-07-21T02:25:46.829Z,99.90
2018-07-21T02:28:15.570Z,99.90
2018-07-21T02:30:44.248Z,99.90
2018-07-21T02:33:13.938Z,99.90
2018-07-21T02:35:43.157Z,99.90
2018-07-21T02:38:11.886Z,99.90
2018-07-21T02:40:40.577Z,99.90
2018-07-21T02:43:09.372Z,99.90
2018-07-21T02:45:39.056Z,99.90
2018-07-21T02:48:07.733Z,99.90
2018-07-21T02:50:36.404Z,99.90
2018-07-21T02:53:05.100Z,99.90
2018-07-21T02:55:33.820Z,99.90
2018-07-21T02:58:02.534Z,99.90
2018-07-21T03:00:31.257Z,99.90
2018-07-21T03:03:00.041Z,99.90
2018-07-21T03:05:28.855Z,99.90
2018-07-21T03:07:57.832Z,99.90
2018-07-21T03:10:26.602Z,99.90
2018-07-21T03:12:55.324Z,99.90
2018-07-21T03:15:24.047Z,99.90
2018-07-21T03:17:52.854Z,99.90
2018-07-21T03:20:21.573Z,99.90
2018-07-21T03:22:50.329Z,99.90
2018-07-21T03:25:19.019Z,99.90
2018-07-21T03:27:47.775Z,99.90
2018-07-21T03:30:16.501Z,99.90
2018-07-21T03:32:45.185Z,99.90
2018-07-21T03:35:13.945Z,99.90
2018-07-21T03:37:42.636Z,99.90
2018-07-21T03:40:11.356Z,99.90
2018-07-21T03:42:40.065Z,99.90
2018-07-21T03:45:08.806Z,99.90
2018-07-21T03:47:37.544Z,99.90
2018-07-21T03:50:06.269Z,99.90
2018-07-21T03:52:34.997Z,99.90
2018-07-21T03:55:03.741Z,99.90
2018-07-21T03:57:32.940Z,99.90
2018-07-21T04:00:01.772Z,99.90
2018-07-21T04:02:30.501Z,99.90
2018-07-21T04:04:59.304Z,99.90
2018-07-21T04:07:28.053Z,99.90
2018-07-21T04:09:56.764Z,99.90
2018-07-21T04:12:25.496Z,99.90
2018-07-21T04:14:54.312Z,99.90
2018-07-21T04:17:25.958Z,99.90
2018-07-21T04:19:55.493Z,99.90
2018-07-21T04:22:25.905Z,99.90
2018-07-21T04:24:55.028Z,99.90
2018-07-21T04:27:23.762Z,99.90
2018-07-21T04:29:53.023Z,99.90
2018-07-21T04:32:21.793Z,99.90
2018-07-21T04:34:50.537Z,99.90
2018-07-21T04:37:19.275Z,99.90
2018-07-21T04:39:48.676Z,99.90
2018-07-21T04:42:17.419Z,99.90
2018-07-21T04:44:46.168Z,99.90
2018-07-21T04:47:15.248Z,99.90
2018-07-21T04:49:44.553Z,99.20
2018-07-21T04:52:13.392Z,98.10
2018-07-21T04:54:42.099Z,97.40
2018-07-21T04:57:10.770Z,97.50
2018-07-21T04:59:39.496Z,96.90
2018-07-21T05:02:08.582Z,97.00
2018-07-21T05:04:37.373Z,95.60
2018-07-21T05:07:06.110Z,95.10
2018-07-21T05:09:34.837Z,94.90
2018-07-21T05:12:03.641Z,95.10
2018-07-21T05:14:32.349Z,95.20
2018-07-21T05:17:01.162Z,95.40
2018-07-21T05:19:29.957Z,95.80
2018-07-21T05:21:58.740Z,96.00
2018-07-21T05:24:28.500Z,96.30
2018-07-21T05:26:57.272Z,96.40
2018-07-21T05:29:28.126Z,96.40
2018-07-21T05:31:56.828Z,96.50
2018-07-21T05:34:25.509Z,96.50
2018-07-21T05:36:55.155Z,96.40
2018-07-21T05:39:23.896Z,96.40
2018-07-21T05:41:52.672Z,96.60
2018-07-21T05:44:21.837Z,96.70
2018-07-21T05:46:50.684Z,97.20
2018-07-21T05:49:19.445Z,96.90
2018-07-21T05:51:48.197Z,96.70
2018-07-21T05:54:17.168Z,96.80
2018-07-21T05:56:45.923Z,97.00
2018-07-21T05:59:14.848Z,96.70
2018-07-21T06:01:43.770Z,96.80
2018-07-21T06:04:12.740Z,96.70
2018-07-21T06:06:41.446Z,96.80
2018-07-21T06:09:11.305Z,96.80
2018-07-21T06:11:45.656Z,96.70
2018-07-21T06:14:14.694Z,96.50
2018-07-21T06:16:44.480Z,96.20
2018-07-21T06:19:13.338Z,96.20
2018-07-21T06:21:42.300Z,96.00
2018-07-21T06:24:11.041Z,95.90
2018-07-21T06:26:39.784Z,95.90
2018-07-21T06:29:09.089Z,95.90
2018-07-21T06:31:39.199Z,95.90
2018-07-21T06:34:09.290Z,95.80
2018-07-21T06:36:48.019Z,95.90
2018-07-21T06:39:17.202Z,95.90
2018-07-21T06:41:45.895Z,96.00
2018-07-21T06:44:15.713Z,96.10
2018-07-21T06:46:44.448Z,96.10
2018-07-21T06:49:13.199Z,96.10
2018-07-21T06:51:42.025Z,96.00
2018-07-21T06:54:10.753Z,96.00
2018-07-21T06:56:39.472Z,95.70
2018-07-21T06:59:08.282Z,95.50
2018-07-21T07:01:38.056Z,95.40
2018-07-21T07:04:06.817Z,95.30
2018-07-21T07:06:35.844Z,95.30
2018-07-21T07:09:06.918Z,95.30
2018-07-21T07:11:35.672Z,95.30
2018-07-21T07:14:05.120Z,95.40
2018-07-21T07:16:34.890Z,95.70
2018-07-21T07:19:03.936Z,95.90
2018-07-21T07:21:32.702Z,95.90
2018-07-21T07:24:02.290Z,95.80
2018-07-21T07:26:31.033Z,95.90
2018-07-21T07:28:59.751Z,95.70
2018-07-21T07:31:28.884Z,95.80
2018-07-21T07:33:57.617Z,95.60
2018-07-21T07:36:26.495Z,95.50
2018-07-21T07:38:55.215Z,95.40
2018-07-21T07:41:24.527Z,95.00
2018-07-21T07:43:53.778Z,95.10
2018-07-21T07:46:22.629Z,94.80
2018-07-21T07:48:52.501Z,94.70
2018-07-21T07:51:21.261Z,94.50
2018-07-21T07:53:51.134Z,94.50
2018-07-21T07:56:19.992Z,94.40
2018-07-21T07:58:48.799Z,94.30
2018-07-21T08:01:17.776Z,94.30
2018-07-21T08:03:46.644Z,94.30
2018-07-21T08:06:15.411Z,94.20
2018-07-21T08:08:46.353Z,94.10
2018-07-21T08:11:15.172Z,93.90
2018-07-21T08:13:43.974Z,93.70
2018-07-21T08:16:13.038Z,93.20
2018-07-21T08:18:46.480Z,93.20
2018-07-21T08:21:15.424Z,92.90
2018-07-21T08:23:45.375Z,92.90
2018-07-21T08:26:14.388Z,93.00
2018-07-21T08:28:43.378Z,93.10
2018-07-21T08:31:12.229Z,93.20
2018-07-21T08:33:41.071Z,93.30
2018-07-21T08:36:09.761Z,93.20
2018-07-21T08:38:38.515Z,93.10
2018-07-21T08:41:08.022Z,93.30
2018-07-21T08:43:36.922Z,93.30
2018-07-21T08:46:05.738Z,93.50
2018-07-21T08:48:34.605Z,93.60
2018-07-21T08:51:03.486Z,93.10
2018-07-21T08:53:32.294Z,93.10
2018-07-21T08:56:01.187Z,93.00
2018-07-21T08:58:29.945Z,92.90
2018-07-21T09:00:58.911Z,92.70
2018-07-21T09:03:28.110Z,92.90
2018-07-21T09:05:56.890Z,93.00
2018-07-21T09:08:26.804Z,92.80
2018-07-21T09:10:55.545Z,92.90
2018-07-21T09:13:24.391Z,92.30
2018-07-21T09:15:53.157Z,92.20
2018-07-21T09:18:21.984Z,91.80
2018-07-21T09:20:50.904Z,92.70
2018-07-21T09:23:19.744Z,92.80
2018-07-21T09:25:48.551Z,92.40
2018-07-21T09:28:17.567Z,92.70
2018-07-21T09:30:46.285Z,93.00
2018-07-21T09:33:15.461Z,92.90
2018-07-21T09:35:44.446Z,93.10
2018-07-21T09:38:13.949Z,93.00
2018-07-21T09:40:42.795Z,93.00
2018-07-21T09:43:11.637Z,92.60
2018-07-21T09:45:40.448Z,92.40
2018-07-21T09:48:09.216Z,92.10
2018-07-21T09:50:38.443Z,91.50
2018-07-21T09:53:07.282Z,91.30
2018-07-21T09:55:36.069Z,90.90
2018-07-21T09:58:04.997Z,90.90
2018-07-21T10:00:39.068Z,90.60
2018-07-21T10:03:07.942Z,90.50
2018-07-21T10:05:37.218Z,90.60
2018-07-21T10:08:06.021Z,90.40
2018-07-21T10:10:34.816Z,89.80
2018-07-21T10:13:03.615Z,89.30
2018-07-21T10:15:32.634Z,88.90
2018-07-21T10:18:01.774Z,88.90
2018-07-21T10:20:30.576Z,88.80
2018-07-21T10:22:59.327Z,87.50
2018-07-21T10:25:33.575Z,85.90
2018-07-21T10:28:07.823Z,85.40
2018-07-21T10:30:36.621Z,85.90
2018-07-21T10:33:05.503Z,86.00
2018-07-21T10:35:34.276Z,85.50
2018-07-21T10:38:03.530Z,85.30
2018-07-21T10:40:32.296Z,85.40
2018-07-21T10:43:01.077Z,85.30
2018-07-21T10:45:30.901Z,85.90
2018-07-21T10:48:02.877Z,85.80
2018-07-21T10:50:31.684Z,86.30
2018-07-21T10:53:00.590Z,86.70
2018-07-21T10:55:29.347Z,87.30
2018-07-21T10:57:58.152Z,87.70
2018-07-21T11:00:27.084Z,87.30
2018-07-21T11:02:55.990Z,86.80
2018-07-21T11:05:24.733Z,86.10
2018-07-21T11:07:53.523Z,84.90
2018-07-21T11:10:22.375Z,84.20
2018-07-21T11:12:51.797Z,83.30
2018-07-21T11:15:20.849Z,82.30
2018-07-21T11:17:49.631Z,81.70
2018-07-21T11:20:18.575Z,81.10
2018-07-21T11:22:47.465Z,79.80
2018-07-21T11:25:16.443Z,78.90
2018-07-21T11:27:45.191Z,78.40
2018-07-21T11:30:14.050Z,78.30
2018-07-21T11:32:42.931Z,78.40
2018-07-21T11:35:11.708Z,78.50
2018-07-21T11:37:40.892Z,78.50
2018-07-21T11:40:09.754Z,79.70
2018-07-21T11:42:38.487Z,79.80
2018-07-21T11:45:07.281Z,80.00
2018-07-21T11:47:36.176Z,79.80
2018-07-21T11:50:05.029Z,80.20
2018-07-21T11:52:34.031Z,79.60
2018-07-21T11:55:02.873Z,79.60
2018-07-21T11:57:31.646Z,79.50
2018-07-21T12:00:00.405Z,79.60
2018-07-21T12:02:29.365Z,79.40
2018-07-21T12:04:58.256Z,79.00
2018-07-21T12:07:27.080Z,78.70
2018-07-21T12:09:56.415Z,78.70
2018-07-21T12:12:25.364Z,78.60
2018-07-21T12:14:54.334Z,78.10
2018-07-21T12:17:23.969Z,78.10
2018-07-21T12:19:53.129Z,77.50
2018-07-21T12:22:22.921Z,77.40
2018-07-21T12:24:51.913Z,77.50
2018-07-21T12:27:22.962Z,76.50
2018-07-21T12:29:53.035Z,76.10
2018-07-21T12:32:21.871Z,76.30
2018-07-21T12:34:51.055Z,76.40
2018-07-21T12:37:20.001Z,76.10
2018-07-21T12:39:48.809Z,75.90
2018-07-21T12:42:18.011Z,75.80
2018-07-21T12:44:46.901Z,75.40
2018-07-21T12:47:15.957Z,75.20
2018-07-21T12:49:45.062Z,74.80
2018-07-21T12:52:13.866Z,74.40
2018-07-21T12:54:42.771Z,73.90
2018-07-21T12:57:11.619Z,74.20
2018-07-21T12:59:40.517Z,73.70
2018-07-21T13:02:09.715Z,73.10
2018-07-21T13:04:38.578Z,72.60
2018-07-21T13:07:08.335Z,72.40
2018-07-21T13:09:37.329Z,72.00
2018-07-21T13:12:06.301Z,71.30
2018-07-21T13:14:35.172Z,71.20
2018-07-21T13:17:04.631Z,70.80
2018-07-21T13:19:33.576Z,70.70
2018-07-21T13:22:02.367Z,70.50
2018-07-21T13:24:31.300Z,70.10
2018-07-21T13:27:00.108Z,70.20
2018-07-21T13:29:28.899Z,69.70
2018-07-21T13:31:57.762Z,70.60
2018-07-21T13:34:26.541Z,71.70
2018-07-21T13:36:55.410Z,71.30
2018-07-21T13:39:24.183Z,71.70
2018-07-21T13:41:53.128Z,71.80
2018-07-21T13:44:22.005Z,71.70
2018-07-21T13:46:50.966Z,71.80
2018-07-21T13:49:19.956Z,71.70
2018-07-21T13:51:49.013Z,72.20
2018-07-21T13:54:18.000Z,72.40
2018-07-21T13:56:46.827Z,73.00
2018-07-21T13:59:15.776Z,73.40
2018-07-21T14:01:45.430Z,73.20
2018-07-21T14:04:14.278Z,73.10
2018-07-21T14:06:43.159Z,73.00
2018-07-21T14:09:13.170Z,72.70
2018-07-21T14:11:42.154Z,72.40
2018-07-21T14:14:11.062Z,72.20
2018-07-21T14:16:39.884Z,72.10
2018-07-21T14:19:09.389Z,71.60
2018-07-21T14:21:38.297Z,71.30
2018-07-21T14:24:09.226Z,71.00
2018-07-21T14:26:38.180Z,71.00
2018-07-21T14:29:07.087Z,70.70
2018-07-21T14:31:39.325Z,70.70
2018-07-21T14:34:08.417Z,70.80
2018-07-21T14:36:37.452Z,70.70
2018-07-21T14:39:07.613Z,70.70
2018-07-21T14:41:36.887Z,70.90
2018-07-21T14:44:06.086Z,70.70
2018-07-21T14:46:34.997Z,70.40
2018-07-21T14:49:04.505Z,70.40
2018-07-21T14:51:33.288Z,70.10
2018-07-21T14:54:02.282Z,70.50
2018-07-21T14:56:31.859Z,70.20
2018-07-21T14:59:02.424Z,70.20
2018-07-21T15:01:32.179Z,70.60
2018-07-21T15:04:00.953Z,70.10
2018-07-21T15:06:29.872Z,69.40
2018-07-21T15:08:58.872Z,70.20
2018-07-21T15:11:27.789Z,70.70
2018-07-21T15:13:56.579Z,70.80
2018-07-21T15:16:25.359Z,71.20
2018-07-21T15:18:54.900Z,71.20
2018-07-21T15:21:23.798Z,71.00
2018-07-21T15:23:52.954Z,70.60
2018-07-21T15:26:22.497Z,70.50
2018-07-21T15:28:52.317Z,70.10
2018-07-21T15:31:21.132Z,70.80
2018-07-21T15:33:50.285Z,70.70
2018-07-21T15:36:19.221Z,70.60
2018-07-21T15:38:48.211Z,70.80
2018-07-21T15:41:17.148Z,71.20
2018-07-21T15:43:46.079Z,71.00
2018-07-21T15:46:15.065Z,70.70
2018-07-21T15:48:44.030Z,71.10
2018-07-21T15:51:12.951Z,71.10
2018-07-21T15:53:41.798Z,70.70
2018-07-21T15:56:10.590Z,71.20
2018-07-21T15:58:39.616Z,71.50
2018-07-21T16:01:08.513Z,71.70
2018-07-21T16:03:37.400Z,71.50
2018-07-21T16:06:06.374Z,71.80
2018-07-21T16:08:35.433Z,71.90
2018-07-21T16:11:04.818Z,71.90
2018-07-21T16:13:33.969Z,72.00
2018-07-21T16:16:02.902Z,71.70
2018-07-21T16:18:31.696Z,71.60
2018-07-21T16:21:01.150Z,72.10
2018-07-21T16:23:30.149Z,72.60
2018-07-21T16:25:59.094Z,72.50
2018-07-21T16:28:28.019Z,72.60
2018-07-21T16:30:56.846Z,72.30
2018-07-21T16:33:25.990Z,72.40
2018-07-21T16:35:54.848Z,72.70
2018-07-21T16:38:24.501Z,73.00
2018-07-21T16:40:53.301Z,72.90
2018-07-21T16:43:24.201Z,73.30
2018-07-21T16:45:53.153Z,73.60
2018-07-21T16:48:22.569Z,73.60
2018-07-21T16:50:51.339Z,73.90
2018-07-21T16:53:20.180Z,74.00
2018-07-21T16:55:49.235Z,74.50
2018-07-21T16:58:18.861Z,74.70
2018-07-21T17:00:47.701Z,74.80
2018-07-21T17:03:16.640Z,74.70
2018-07-21T17:05:45.416Z,74.80
2018-07-21T17:08:14.811Z,75.10
2018-07-21T17:10:43.700Z,75.60
2018-07-21T17:13:12.609Z,75.50
2018-07-21T17:15:41.479Z,75.70
2018-07-21T17:18:10.237Z,76.00
2018-07-21T17:20:39.057Z,76.20
2018-07-21T17:23:07.919Z,76.20
2018-07-21T17:25:37.170Z,76.50
2018-07-21T17:28:06.089Z,76.60
2018-07-21T17:30:37.342Z,76.60
2018-07-21T17:33:07.107Z,76.90
2018-07-21T17:35:35.908Z,77.40
2018-07-21T17:38:06.047Z,77.30
2018-07-21T17:40:34.856Z,77.10
2018-07-21T17:43:04.115Z,77.20
2018-07-21T17:45:37.371Z,77.40
2018-07-21T17:48:06.558Z,77.30
2018-07-21T17:50:35.304Z,77.20
2018-07-21T17:53:04.148Z,77.20
2018-07-21T17:55:32.958Z,77.00
2018-07-21T17:58:01.890Z,76.70
2018-07-21T18:00:30.609Z,76.70
2018-07-21T18:02:59.537Z,76.50
2018-07-21T18:05:28.537Z,76.10
2018-07-21T18:07:57.467Z,75.90
2018-07-21T18:10:27.505Z,75.50
2018-07-21T18:12:57.590Z,75.60
2018-07-21T18:15:26.415Z,75.30
2018-07-21T18:17:55.690Z,75.70
2018-07-21T18:20:25.423Z,75.50
2018-07-21T18:22:54.215Z,75.40
2018-07-21T18:25:23.101Z,75.10
2018-07-21T18:27:51.888Z,75.60
2018-07-21T18:30:20.714Z,75.30
2018-07-21T18:32:49.952Z,75.50
2018-07-21T18:35:19.122Z,75.50
2018-07-21T18:37:50.412Z,75.50
2018-07-21T18:40:19.267Z,75.10
2018-07-21T18:42:48.261Z,75.60
2018-07-21T18:45:17.221Z,75.60
2018-07-21T18:47:46.097Z,75.50
2018-07-21T18:50:15.256Z,75.80
2018-07-21T18:52:44.224Z,76.20
2018-07-21T18:55:13.100Z,76.70
2018-07-21T18:57:42.115Z,77.20
2018-07-21T19:00:10.849Z,77.50
2018-07-21T19:02:40.545Z,78.10
2018-07-21T19:05:09.339Z,79.10
2018-07-21T19:07:38.185Z,80.10
2018-07-21T19:10:06.934Z,80.90
2018-07-21T19:12:41.079Z,81.40
2018-07-21T19:15:10.006Z,81.70
2018-07-21T19:17:38.771Z,82.30
2018-07-21T19:20:13.314Z,83.80
2018-07-21T19:22:43.307Z,83.70
2018-07-21T19:25:17.523Z,84.50
2018-07-21T19:27:47.245Z,85.00
2018-07-21T19:30:16.229Z,85.00
2018-07-21T19:32:50.592Z,85.90
2018-07-21T19:35:26.018Z,86.20
2018-07-21T19:37:55.676Z,86.20
2018-07-21T19:40:30.638Z,86.60
2018-07-21T19:42:59.461Z,86.80
2018-07-21T19:45:28.283Z,87.10
2018-07-21T19:47:57.247Z,87.10
2018-07-21T19:50:26.467Z,87.50
2018-07-21T19:52:55.452Z,87.50
2018-07-21T19:55:24.241Z,87.70
2018-07-21T19:57:53.578Z,88.30
2018-07-21T20:00:23.014Z,88.10
2018-07-21T20:02:51.825Z,88.20
2018-07-21T20:05:20.729Z,88.00
2018-07-21T20:07:49.434Z,88.60
2018-07-21T20:10:18.222Z,88.80
2018-07-21T20:12:48.257Z,88.90
2018-07-21T20:15:17.232Z,88.90
2018-07-21T20:17:49.800Z,89.00
2018-07-21T20:20:18.614Z,88.90
2018-07-21T20:22:47.505Z,89.00
2018-07-21T20:25:16.394Z,89.30
2018-07-21T20:27:45.339Z,89.60
2018-07-21T20:30:14.662Z,89.40
2018-07-21T20:32:43.995Z,89.50
2018-07-21T20:35:12.857Z,90.00
2018-07-21T20:37:42.052Z,89.70
2018-07-21T20:40:10.954Z,89.60
2018-07-21T20:42:40.876Z,89.80
2018-07-21T20:45:10.516Z,89.70
2018-07-21T20:47:39.355Z,90.00
2018-07-21T20:50:14.269Z,90.20
2018-07-21T20:52:43.731Z,90.20
2018-07-21T20:55:26.334Z,90.20
2018-07-21T20:58:01.555Z,90.30
2018-07-21T21:00:31.202Z,90.30
2018-07-21T21:03:01.000Z,90.50
2018-07-21T21:05:30.287Z,90.60
2018-07-21T21:08:00.439Z,90.80
2018-07-21T21:10:29.254Z,90.70
2018-07-21T21:12:58.445Z,90.80
2018-07-21T21:15:27.201Z,90.80
2018-07-21T21:17:56.221Z,90.90
2018-07-21T21:20:24.997Z,90.90
2018-07-21T21:22:54.857Z,91.00
2018-07-21T21:25:24.553Z,91.00
2018-07-21T21:27:53.283Z,91.10
2018-07-21T21:30:22.813Z,91.00
2018-07-21T21:32:51.641Z,91.10
2018-07-21T21:35:20.546Z,91.10
2018-07-21T21:37:49.245Z,91.10
2018-07-21T21:40:18.214Z,91.00
2018-07-21T21:42:46.910Z,91.10
2018-07-21T21:45:16.685Z,91.00
2018-07-21T21:47:46.021Z,91.20
2018-07-21T21:50:14.773Z,91.30
2018-07-21T21:52:43.672Z,91.30
2018-07-21T21:55:15.597Z,91.30
2018-07-21T21:57:45.336Z,91.40
2018-07-21T22:00:15.336Z,91.30
2018-07-21T22:02:47.109Z,91.30
2018-07-21T22:05:16.494Z,91.40
2018-07-21T22:07:46.009Z,91.50
2018-07-21T22:10:15.178Z,91.30
2018-07-21T22:12:44.367Z,91.30
2018-07-21T22:15:20.253Z,91.40
2018-07-21T22:17:50.276Z,91.30
2018-07-21T22:20:20.193Z,91.30
2018-07-21T22:22:51.280Z,91.50
2018-07-21T22:25:20.018Z,91.40
2018-07-21T22:27:49.001Z,91.40
2018-07-21T22:30:21.145Z,91.60
2018-07-21T22:32:49.902Z,91.80
2018-07-21T22:35:18.672Z,91.80
2018-07-21T22:37:47.390Z,92.10
2018-07-21T22:40:16.156Z,92.10
2018-07-21T22:42:44.950Z,92.10
2018-07-21T22:45:13.729Z,92.20
2018-07-21T22:47:44.657Z,92.30
2018-07-21T22:50:13.531Z,92.20
2018-07-21T22:52:44.324Z,92.40
2018-07-21T22:55:15.666Z,92.30
2018-07-21T22:57:51.762Z,92.10
2018-07-21T23:00:21.753Z,92.70
2018-07-21T23:02:51.483Z,92.40
2018-07-21T23:05:34.397Z,92.50
2018-07-21T23:08:04.320Z,92.40
2018-07-21T23:10:33.105Z,92.40
2018-07-21T23:13:01.897Z,92.40
2018-07-21T23:15:30.860Z,92.50
2018-07-21T23:17:59.539Z,92.50
2018-07-21T23:20:28.302Z,92.50
2018-07-21T23:22:56.978Z,92.60
2018-07-21T23:25:25.764Z,92.60
2018-07-21T23:27:54.460Z,92.70
2018-07-21T23:30:23.145Z,92.90
2018-07-21T23:32:51.852Z,92.90
2018-07-21T23:35:20.536Z,92.90
2018-07-21T23:37:49.195Z,93.10
2018-07-21T23:40:17.905Z,93.00
2018-07-21T23:42:46.716Z,93.20
2018-07-21T23:45:15.400Z,93.20
2018-07-21T23:47:44.375Z,93.30
2018-07-21T23:50:13.113Z,93.40
2018-07-21T23:52:41.795Z,93.30
2018-07-21T23:55:10.532Z,93.30
2018-07-21T23:57:39.296Z,93.30
